AU-0048 weather

Kulin Bush Races Strip
Kulin, Western Australia, Australia

Public forecast

Using degrees Celsius for public forecast. Weather courtesy of forecast.io.

METAR (pilot weather report)

Closest report is Perth International Airport, 126.6 nm (234.5 km) WNW. Retrieved 2019/04/20 04:00 UTC (18 minutes ago):

YPPH 200400Z 17012KT CAVOK 16/03 Q1026 NOSIG

TAF (pilot weather forecast)

Forecast is more than 12 hours old.

Closest forecast is Perth International Airport, 126.6 nm (234.5 km) WNW. Retrieved 2019/04/19 00:00 UTC (1 day ago):

TAF YPPH 192259Z 2000/2106 15007KT 9999 SCT040 FM200500 19010KT CAVOK FM201300 12006KT CAVOK FM210000 06007KT CAVOK